createdAt,value
2019-01-19T00:00:13.632Z,1009.42
2019-01-19T00:01:19.127Z,1009.39
2019-01-19T00:02:24.628Z,1009.40
2019-01-19T00:03:30.140Z,1009.38
2019-01-19T00:04:35.656Z,1009.35
2019-01-19T00:05:41.145Z,1009.38
2019-01-19T00:06:46.637Z,1009.39
2019-01-19T00:07:52.141Z,1009.34
2019-01-19T00:08:57.655Z,1009.36
2019-01-19T00:10:03.146Z,1009.33
2019-01-19T00:11:08.659Z,1009.32
2019-01-19T00:12:14.148Z,1009.30
2019-01-19T00:13:19.660Z,1009.28
2019-01-19T00:14:25.159Z,1009.30
2019-01-19T00:15:30.653Z,1009.26
2019-01-19T00:16:36.164Z,1009.30
2019-01-19T00:17:41.670Z,1009.28
2019-01-19T00:18:47.192Z,1009.26
2019-01-19T00:19:52.675Z,1009.24
2019-01-19T00:20:58.173Z,1009.28
2019-01-19T00:22:03.671Z,1009.14
2019-01-19T00:23:09.182Z,1009.20
2019-01-19T00:24:14.686Z,1009.19
2019-01-19T00:25:20.177Z,1009.17
2019-01-19T00:26:25.693Z,1009.18
2019-01-19T00:27:31.184Z,1009.21
2019-01-19T00:28:36.687Z,1009.18
2019-01-19T00:29:42.183Z,1009.20
2019-01-19T00:30:47.698Z,1009.22
2019-01-19T00:31:53.196Z,1009.19
2019-01-19T00:32:58.691Z,1009.18
2019-01-19T00:34:04.199Z,1009.16
2019-01-19T00:35:09.711Z,1009.19
2019-01-19T00:36:15.206Z,1009.12
2019-01-19T00:37:20.705Z,1009.18
2019-01-19T00:38:26.213Z,1009.18
2019-01-19T00:39:31.717Z,1009.16
2019-01-19T00:40:37.220Z,1009.14
2019-01-19T00:41:42.703Z,1009.14
2019-01-19T00:42:48.212Z,1009.13
2019-01-19T00:43:53.712Z,1009.12
2019-01-19T00:44:59.224Z,1009.15
2019-01-19T00:46:04.722Z,1009.16
2019-01-19T00:47:10.225Z,1009.20
2019-01-19T00:48:15.732Z,1009.16
2019-01-19T00:49:21.247Z,1009.17
2019-01-19T00:50:26.731Z,1009.17
2019-01-19T00:51:32.236Z,1009.15
2019-01-19T00:52:37.761Z,1009.16
2019-01-19T00:53:43.236Z,1009.19
2019-01-19T00:54:48.742Z,1009.14
2019-01-19T00:55:54.252Z,1009.20
2019-01-19T00:56:59.739Z,1009.16
2019-01-19T00:58:05.253Z,1009.17
2019-01-19T00:59:10.747Z,1009.19
2019-01-19T01:00:16.249Z,1009.16
2019-01-19T01:01:21.747Z,1009.15
2019-01-19T01:02:27.262Z,1009.15
2019-01-19T01:03:32.758Z,1009.15
2019-01-19T01:04:38.264Z,1009.11
2019-01-19T01:05:43.770Z,1009.16
2019-01-19T01:06:49.262Z,1009.14
2019-01-19T01:07:54.770Z,1009.15
2019-01-19T01:09:00.279Z,1009.17
2019-01-19T01:10:05.774Z,1009.14
2019-01-19T01:11:11.276Z,1009.11
2019-01-19T01:12:16.772Z,1009.10
2019-01-19T01:13:22.274Z,1009.09
2019-01-19T01:14:27.773Z,1009.03
2019-01-19T01:15:33.280Z,1009.06
2019-01-19T01:16:38.789Z,1009.04
2019-01-19T01:17:44.282Z,1009.09
2019-01-19T01:18:49.783Z,1009.12
2019-01-19T01:19:55.285Z,1009.11
2019-01-19T01:21:00.805Z,1009.12
2019-01-19T01:22:06.288Z,1009.12
2019-01-19T01:23:11.792Z,1009.11
2019-01-19T01:24:17.293Z,1009.06
2019-01-19T01:25:22.798Z,1009.13
2019-01-19T01:26:28.295Z,1009.09
2019-01-19T01:27:33.801Z,1009.10
2019-01-19T01:28:39.307Z,1009.08
2019-01-19T01:29:44.801Z,1009.05
2019-01-19T01:30:50.305Z,1009.04
2019-01-19T01:31:55.808Z,1009.06
2019-01-19T01:33:01.317Z,1009.05
2019-01-19T01:34:06.811Z,1009.04
2019-01-19T01:35:12.317Z,1009.01
2019-01-19T01:36:17.816Z,1009.01
2019-01-19T01:37:23.314Z,1009.01
2019-01-19T01:38:28.831Z,1009.02
2019-01-19T01:39:34.333Z,1009.04
2019-01-19T01:40:39.817Z,1009.02
2019-01-19T01:41:45.320Z,1009.01
2019-01-19T01:42:50.880Z,1009.03
2019-01-19T01:43:56.334Z,1009.02
2019-01-19T01:45:01.825Z,1008.99
2019-01-19T01:46:07.335Z,1008.96
2019-01-19T01:47:12.835Z,1008.98
2019-01-19T01:48:18.342Z,1009.00
2019-01-19T01:49:23.836Z,1009.01
2019-01-19T01:50:29.351Z,1009.02
2019-01-19T01:51:34.841Z,1009.01
2019-01-19T01:52:40.352Z,1008.98
2019-01-19T01:53:45.841Z,1008.99
2019-01-19T01:54:51.349Z,1009.00
2019-01-19T01:55:56.846Z,1009.03
2019-01-19T01:57:02.351Z,1009.01
2019-01-19T01:58:07.846Z,1009.00
2019-01-19T01:59:13.354Z,1008.99
2019-01-19T02:00:18.851Z,1008.99
2019-01-19T02:01:24.360Z,1009.00
2019-01-19T02:02:29.856Z,1009.00
2019-01-19T02:03:35.353Z,1008.95
2019-01-19T02:04:40.862Z,1008.98
2019-01-19T02:05:46.363Z,1009.00
2019-01-19T02:06:51.866Z,1008.95
2019-01-19T02:07:57.376Z,1008.97
2019-01-19T02:09:02.874Z,1008.95
2019-01-19T02:10:08.364Z,1008.96
2019-01-19T02:11:13.869Z,1009.00
2019-01-19T02:12:19.379Z,1008.97
2019-01-19T02:13:24.877Z,1008.92
2019-01-19T02:14:30.378Z,1008.94
2019-01-19T02:15:35.876Z,1008.92
2019-01-19T02:16:41.381Z,1008.93
2019-01-19T02:17:46.883Z,1008.92
2019-01-19T02:18:52.415Z,1008.91
2019-01-19T02:19:57.893Z,1008.85
2019-01-19T02:21:03.394Z,1008.94
2019-01-19T02:22:08.889Z,1008.92
2019-01-19T02:23:14.405Z,1008.90
2019-01-19T02:24:19.887Z,1008.87
2019-01-19T02:25:25.397Z,1008.87
2019-01-19T02:26:30.894Z,1008.90
2019-01-19T02:27:36.392Z,1008.85
2019-01-19T02:28:41.911Z,1008.88
2019-01-19T02:29:47.399Z,1008.88
2019-01-19T02:30:52.903Z,1008.88
2019-01-19T02:31:59.784Z,1008.83
2019-01-19T02:33:03.906Z,1008.77
2019-01-19T02:34:09.409Z,1008.80
2019-01-19T02:35:14.912Z,1008.73
2019-01-19T02:36:20.487Z,1008.72
2019-01-19T02:37:25.911Z,1008.73
2019-01-19T02:38:31.433Z,1008.77
2019-01-19T02:39:36.918Z,1008.71
2019-01-19T02:40:42.422Z,1008.75
2019-01-19T02:41:47.914Z,1008.72
2019-01-19T02:42:53.422Z,1008.72
2019-01-19T02:43:58.922Z,1008.71
2019-01-19T02:45:04.430Z,1008.76
2019-01-19T02:46:09.927Z,1008.69
2019-01-19T02:47:15.427Z,1008.71
2019-01-19T02:48:20.932Z,1008.69
2019-01-19T02:49:26.433Z,1008.70
2019-01-19T02:50:31.933Z,1008.67
2019-01-19T02:51:37.443Z,1008.62
2019-01-19T02:52:42.938Z,1008.63
2019-01-19T02:53:48.436Z,1008.65
2019-01-19T02:54:53.940Z,1008.63
2019-01-19T02:55:59.437Z,1008.63
2019-01-19T02:57:04.936Z,1008.59
2019-01-19T02:58:10.443Z,1008.58
2019-01-19T02:59:15.948Z,1008.60
2019-01-19T03:00:21.455Z,1008.63
2019-01-19T03:01:26.950Z,1008.59
2019-01-19T03:02:32.452Z,1008.62
2019-01-19T03:03:37.950Z,1008.57
2019-01-19T03:04:43.450Z,1008.58
2019-01-19T03:05:55.980Z,1008.61
2019-01-19T03:06:54.456Z,1008.63
2019-01-19T03:07:59.961Z,1008.58
2019-01-19T03:09:05.473Z,1008.59
2019-01-19T03:10:10.962Z,1008.59
2019-01-19T03:11:16.463Z,1008.60
2019-01-19T03:12:22.003Z,1008.58
2019-01-19T03:13:27.469Z,1008.58
2019-01-19T03:14:32.965Z,1008.53
2019-01-19T03:15:38.469Z,1008.55
2019-01-19T03:16:43.973Z,1008.54
2019-01-19T03:17:49.477Z,1008.55
2019-01-19T03:18:54.978Z,1008.53
2019-01-19T03:20:00.474Z,1008.56
2019-01-19T03:21:05.990Z,1008.54
2019-01-19T03:22:11.483Z,1008.50
2019-01-19T03:23:16.980Z,1008.47
2019-01-19T03:24:22.492Z,1008.46
2019-01-19T03:25:27.989Z,1008.48
2019-01-19T03:26:33.494Z,1008.48
2019-01-19T03:27:38.984Z,1008.50
2019-01-19T03:28:44.490Z,1008.46
2019-01-19T03:29:49.987Z,1008.47
2019-01-19T03:30:55.488Z,1008.46
2019-01-19T03:32:00.988Z,1008.48
2019-01-19T03:33:06.511Z,1008.51
2019-01-19T03:34:12.004Z,1008.45
2019-01-19T03:35:17.496Z,1008.52
2019-01-19T03:36:22.997Z,1008.51
2019-01-19T03:37:28.501Z,1008.47
2019-01-19T03:38:34.002Z,1008.43
2019-01-19T03:39:39.501Z,1008.45
2019-01-19T03:40:45.004Z,1008.46
2019-01-19T03:41:50.510Z,1008.48
2019-01-19T03:42:56.004Z,1008.44
2019-01-19T03:44:01.506Z,1008.45
2019-01-19T03:45:07.008Z,1008.45
2019-01-19T03:46:12.513Z,1008.43
2019-01-19T03:47:18.019Z,1008.41
2019-01-19T03:48:23.527Z,1008.39
2019-01-19T03:49:29.026Z,1008.40
2019-01-19T03:50:34.520Z,1008.40
2019-01-19T03:51:40.026Z,1008.43
2019-01-19T03:52:45.528Z,1008.42
2019-01-19T03:53:51.035Z,1008.39
2019-01-19T03:54:56.520Z,1008.36
2019-01-19T03:56:02.020Z,1008.39
2019-01-19T03:57:07.527Z,1008.41
2019-01-19T03:58:13.025Z,1008.39
2019-01-19T03:59:18.534Z,1008.38
2019-01-19T04:00:24.049Z,1008.36
2019-01-19T04:01:29.535Z,1008.35
2019-01-19T04:02:35.035Z,1008.34
2019-01-19T04:03:40.544Z,1008.29
2019-01-19T04:04:46.041Z,1008.32
2019-01-19T04:05:51.541Z,1008.31
2019-01-19T04:06:57.042Z,1008.33
2019-01-19T04:08:02.539Z,1008.35
2019-01-19T04:09:08.053Z,1008.32
2019-01-19T04:10:13.561Z,1008.29
2019-01-19T04:11:19.048Z,1008.32
2019-01-19T04:12:24.552Z,1008.28
2019-01-19T04:13:30.060Z,1008.29
2019-01-19T04:14:35.549Z,1008.31
2019-01-19T04:15:41.056Z,1008.30
2019-01-19T04:16:46.565Z,1008.28
2019-01-19T04:17:52.057Z,1008.24
2019-01-19T04:18:57.566Z,1008.21
2019-01-19T04:20:03.066Z,1008.20
2019-01-19T04:21:08.564Z,1008.21
2019-01-19T04:22:14.076Z,1008.23
2019-01-19T04:23:19.567Z,1008.19
2019-01-19T04:24:25.065Z,1008.20
2019-01-19T04:25:30.568Z,1008.22
2019-01-19T04:26:36.077Z,1008.20
2019-01-19T04:27:41.572Z,1008.16
2019-01-19T04:28:47.075Z,1008.20
2019-01-19T04:29:52.576Z,1008.18
2019-01-19T04:30:58.082Z,1008.15
2019-01-19T04:32:03.589Z,1008.18
2019-01-19T04:33:09.082Z,1008.17
2019-01-19T04:34:14.590Z,1008.12
2019-01-19T04:35:20.086Z,1008.16
2019-01-19T04:36:25.600Z,1008.17
2019-01-19T04:37:31.085Z,1008.12
2019-01-19T04:38:36.602Z,1008.17
2019-01-19T04:39:42.088Z,1008.18
2019-01-19T04:40:47.593Z,1008.10
2019-01-19T04:41:53.096Z,1008.10
2019-01-19T04:42:58.591Z,1008.07
2019-01-19T04:44:04.094Z,1008.10
2019-01-19T04:45:09.594Z,1008.08
2019-01-19T04:46:15.104Z,1008.06
2019-01-19T04:47:20.605Z,1008.03
2019-01-19T04:48:26.110Z,1008.08
2019-01-19T04:49:31.611Z,1008.04
2019-01-19T04:50:37.107Z,1008.13
2019-01-19T04:51:42.612Z,1008.02
2019-01-19T04:52:48.117Z,1008.01
2019-01-19T04:53:53.617Z,1008.02
2019-01-19T04:54:59.113Z,1008.00
2019-01-19T04:56:04.611Z,1008.01
2019-01-19T04:57:10.164Z,1007.99
2019-01-19T04:58:15.627Z,1008.02
2019-01-19T04:59:21.119Z,1007.97
2019-01-19T05:00:26.624Z,1008.01
2019-01-19T05:01:32.118Z,1007.96
2019-01-19T05:02:37.626Z,1007.97
2019-01-19T05:03:43.125Z,1008.00
2019-01-19T05:04:48.632Z,1007.97
2019-01-19T05:05:54.139Z,1007.95
2019-01-19T05:06:59.635Z,1007.92
2019-01-19T05:08:05.131Z,1007.95
2019-01-19T05:09:10.639Z,1007.92
2019-01-19T05:10:16.136Z,1007.92
2019-01-19T05:11:21.637Z,1007.89
2019-01-19T05:12:27.133Z,1007.89
2019-01-19T05:13:32.647Z,1007.90
2019-01-19T05:14:38.138Z,1007.90
2019-01-19T05:15:43.642Z,1007.89
2019-01-19T05:16:49.143Z,1007.86
2019-01-19T05:17:55.352Z,1007.87
2019-01-19T05:19:00.159Z,1007.88
2019-01-19T05:20:05.652Z,1007.90
2019-01-19T05:21:11.157Z,1007.88
2019-01-19T05:22:16.653Z,1007.92
2019-01-19T05:23:22.153Z,1007.90
2019-01-19T05:24:27.650Z,1007.90
2019-01-19T05:25:33.203Z,1007.87
2019-01-19T05:26:38.659Z,1007.86
2019-01-19T05:27:44.155Z,1007.89
2019-01-19T05:28:49.655Z,1007.88
2019-01-19T05:29:55.171Z,1007.88
2019-01-19T05:31:00.671Z,1007.86
2019-01-19T05:32:06.177Z,1007.87
2019-01-19T05:33:11.672Z,1007.89
2019-01-19T05:34:17.172Z,1007.81
2019-01-19T05:35:22.669Z,1007.84
2019-01-19T05:36:28.171Z,1007.85
2019-01-19T05:37:33.675Z,1007.85
2019-01-19T05:38:39.182Z,1007.85
2019-01-19T05:39:44.672Z,1007.80
2019-01-19T05:40:50.173Z,1007.80
2019-01-19T05:41:55.675Z,1007.81
2019-01-19T05:43:01.198Z,1007.79
2019-01-19T05:44:06.680Z,1007.80
2019-01-19T05:45:12.188Z,1007.79
2019-01-19T05:46:21.470Z,1007.80
2019-01-19T05:47:23.199Z,1007.81
2019-01-19T05:48:28.691Z,1007.78
2019-01-19T05:49:34.192Z,1007.79
2019-01-19T05:50:39.718Z,1007.76
2019-01-19T05:51:45.196Z,1007.75
2019-01-19T05:52:50.694Z,1007.75
2019-01-19T05:53:56.197Z,1007.72
2019-01-19T05:55:01.695Z,1007.72
2019-01-19T05:56:07.205Z,1007.75
2019-01-19T05:57:12.702Z,1007.70
2019-01-19T05:58:18.199Z,1007.72
2019-01-19T05:59:23.701Z,1007.71
2019-01-19T06:00:29.205Z,1007.73
2019-01-19T06:01:34.707Z,1007.79
2019-01-19T06:02:40.205Z,1007.76
2019-01-19T06:03:45.706Z,1007.77
2019-01-19T06:04:51.211Z,1007.77
2019-01-19T06:05:56.711Z,1007.82
2019-01-19T06:07:02.212Z,1007.80
2019-01-19T06:08:07.719Z,1007.75
2019-01-19T06:09:13.221Z,1007.78
2019-01-19T06:10:18.726Z,1007.73
2019-01-19T06:11:24.222Z,1007.80
2019-01-19T06:12:29.722Z,1007.77
2019-01-19T06:13:35.240Z,1007.79
2019-01-19T06:14:40.724Z,1007.77
2019-01-19T06:15:46.223Z,1007.80
2019-01-19T06:16:51.724Z,1007.74
2019-01-19T06:17:57.228Z,1007.78
2019-01-19T06:19:02.733Z,1007.80
2019-01-19T06:20:08.231Z,1007.79
2019-01-19T06:21:13.737Z,1007.76
2019-01-19T06:22:19.234Z,1007.79
2019-01-19T06:23:24.734Z,1007.77
2019-01-19T06:24:30.233Z,1007.80
2019-01-19T06:25:35.733Z,1007.83
2019-01-19T06:26:41.235Z,1007.81
2019-01-19T06:27:46.848Z,1007.78
2019-01-19T06:28:52.252Z,1007.76
2019-01-19T06:29:57.750Z,1007.79
2019-01-19T06:31:03.245Z,1007.74
2019-01-19T06:32:08.749Z,1007.77
2019-01-19T06:33:14.250Z,1007.75
2019-01-19T06:34:19.748Z,1007.78
2019-01-19T06:35:25.246Z,1007.80
2019-01-19T06:36:30.758Z,1007.75
2019-01-19T06:37:36.256Z,1007.81
2019-01-19T06:38:41.750Z,1007.80
2019-01-19T06:39:47.254Z,1007.79
2019-01-19T06:40:52.763Z,1007.83
2019-01-19T06:41:58.262Z,1007.83
2019-01-19T06:43:03.761Z,1007.79
2019-01-19T06:44:09.264Z,1007.81
2019-01-19T06:46:21.134Z,1007.80
2019-01-19T06:47:25.841Z,1007.79
2019-01-19T06:48:31.334Z,1007.80
2019-01-19T06:49:36.839Z,1007.82
2019-01-19T06:50:42.326Z,1007.84
2019-01-19T06:51:47.836Z,1007.85
2019-01-19T06:52:54.350Z,1007.87
2019-01-19T06:54:01.697Z,1007.84
2019-01-19T06:55:04.361Z,1007.82
2019-01-19T06:56:09.852Z,1007.83
2019-01-19T06:57:15.336Z,1007.79
2019-01-19T06:58:20.850Z,1007.84
2019-01-19T06:59:27.359Z,1007.83
2019-01-19T07:00:31.855Z,1007.85
2019-01-19T07:01:37.361Z,1007.82
2019-01-19T07:02:43.204Z,1007.83
2019-01-19T07:03:48.368Z,1007.83
2019-01-19T07:04:53.847Z,1007.86
2019-01-19T07:06:00.476Z,1007.86
2019-01-19T07:07:04.865Z,1007.85
2019-01-19T07:08:10.374Z,1007.85
2019-01-19T07:09:15.875Z,1007.83
2019-01-19T07:10:21.362Z,1007.87
2019-01-19T07:11:26.861Z,1007.86
2019-01-19T07:12:33.379Z,1007.90
2019-01-19T07:13:37.870Z,1007.89
2019-01-19T07:14:43.379Z,1007.85
2019-01-19T07:15:48.872Z,1007.87
2019-01-19T07:16:54.364Z,1007.88
2019-01-19T07:17:59.877Z,1007.84
2019-01-19T07:19:06.389Z,1007.88
2019-01-19T07:20:10.876Z,1007.89
2019-01-19T07:21:16.398Z,1007.87
2019-01-19T07:22:21.897Z,1007.86
2019-01-19T07:23:27.386Z,1007.89
2019-01-19T07:24:32.876Z,1007.89
2019-01-19T07:25:39.397Z,1007.87
2019-01-19T07:26:43.889Z,1007.91
2019-01-19T07:27:49.398Z,1007.91
2019-01-19T07:28:54.887Z,1007.91
2019-01-19T07:30:00.453Z,1007.93
2019-01-19T07:31:05.918Z,1007.94
2019-01-19T07:32:12.407Z,1007.92
2019-01-19T07:33:16.887Z,1007.98
2019-01-19T07:34:22.407Z,1007.96
2019-01-19T07:35:27.895Z,1007.95
2019-01-19T07:36:33.394Z,1007.96
2019-01-19T07:37:38.914Z,1007.97
2019-01-19T07:38:45.426Z,1007.99
2019-01-19T07:39:49.906Z,1008.00
2019-01-19T07:40:55.398Z,1007.98
2019-01-19T07:42:00.898Z,1007.98
2019-01-19T07:43:06.407Z,1008.01
2019-01-19T07:44:11.904Z,1008.01
2019-01-19T07:45:18.435Z,1007.97
2019-01-19T07:46:23.308Z,1008.03
2019-01-19T07:47:28.419Z,1008.01
2019-01-19T07:48:33.914Z,1007.98
2019-01-19T07:49:39.405Z,1008.04
2019-01-19T07:50:44.926Z,1007.99
2019-01-19T07:51:51.435Z,1007.98
2019-01-19T07:52:55.916Z,1008.04
2019-01-19T07:54:01.437Z,1008.06
2019-01-19T07:55:06.916Z,1008.05
2019-01-19T07:56:12.418Z,1008.02
2019-01-19T07:57:17.929Z,1008.04
2019-01-19T07:58:24.439Z,1008.04
2019-01-19T07:59:28.943Z,1008.04
2019-01-19T08:00:34.444Z,1008.01
2019-01-19T08:01:39.930Z,1008.02
2019-01-19T08:02:45.431Z,1007.99
2019-01-19T08:03:50.936Z,1008.00
2019-01-19T08:04:57.442Z,1008.01
2019-01-19T08:06:01.948Z,1008.01
2019-01-19T08:07:07.438Z,1008.02
2019-01-19T08:08:12.950Z,1008.05
2019-01-19T08:09:18.456Z,1008.08
2019-01-19T08:10:23.965Z,1008.09
2019-01-19T08:11:30.467Z,1008.09
2019-01-19T08:12:34.952Z,1008.12
2019-01-19T08:13:40.465Z,1008.17
2019-01-19T08:14:45.970Z,1008.15
2019-01-19T08:15:51.444Z,1008.14
2019-01-19T08:16:56.962Z,1008.16
2019-01-19T08:18:03.472Z,1008.16
2019-01-19T08:19:07.957Z,1008.19
2019-01-19T08:20:13.455Z,1008.18
2019-01-19T08:21:18.975Z,1008.15
2019-01-19T08:22:24.472Z,1008.15
2019-01-19T08:23:29.977Z,1008.16
2019-01-19T08:24:36.472Z,1008.18
2019-01-19T08:25:40.966Z,1008.15
2019-01-19T08:26:46.469Z,1008.15
2019-01-19T08:27:51.987Z,1008.11
2019-01-19T08:28:57.509Z,1008.15
2019-01-19T08:30:02.993Z,1008.12
2019-01-19T08:31:09.486Z,1008.14
2019-01-19T08:32:13.981Z,1008.16
2019-01-19T08:33:19.486Z,1008.11
2019-01-19T08:34:24.992Z,1008.11
2019-01-19T08:35:30.495Z,1008.10
2019-01-19T08:36:35.991Z,1008.09
2019-01-19T08:37:42.498Z,1008.09
2019-01-19T08:38:46.995Z,1008.06
2019-01-19T08:39:52.505Z,1008.05
2019-01-19T08:40:58.004Z,1008.06
2019-01-19T08:42:03.497Z,1008.05
2019-01-19T08:43:09.019Z,1008.06
2019-01-19T08:44:15.515Z,1008.00
2019-01-19T08:45:20.014Z,1008.06
2019-01-19T08:46:25.522Z,1008.03
2019-01-19T08:47:31.015Z,1008.02
2019-01-19T08:48:36.514Z,1008.03
2019-01-19T08:49:42.029Z,1008.02
2019-01-19T08:50:48.531Z,1008.06
2019-01-19T08:51:53.020Z,1008.05
2019-01-19T08:52:58.529Z,1008.02
2019-01-19T08:54:04.016Z,1008.00
2019-01-19T08:55:09.528Z,1008.03
2019-01-19T08:56:15.023Z,1008.01
2019-01-19T08:57:21.546Z,1007.99
2019-01-19T08:58:26.026Z,1007.96
2019-01-19T08:59:31.538Z,1008.02
2019-01-19T09:00:37.027Z,1007.97
2019-01-19T09:01:42.536Z,1008.02
2019-01-19T09:02:48.048Z,1007.97
2019-01-19T09:03:54.549Z,1007.98
2019-01-19T09:04:59.073Z,1007.99
2019-01-19T09:06:04.540Z,1008.03
2019-01-19T09:07:10.047Z,1007.97
2019-01-19T09:08:15.552Z,1007.99
2019-01-19T09:09:21.075Z,1007.98
2019-01-19T09:10:27.621Z,1007.98
2019-01-19T09:11:32.055Z,1007.97
2019-01-19T09:12:37.565Z,1007.99
2019-01-19T09:13:43.069Z,1007.98
2019-01-19T09:14:48.575Z,1007.94
2019-01-19T09:15:54.077Z,1007.90
2019-01-19T09:17:00.600Z,1007.92
2019-01-19T09:18:05.089Z,1007.96
2019-01-19T09:19:10.579Z,1007.88
2019-01-19T09:20:16.083Z,1007.91
2019-01-19T09:21:21.597Z,1007.91
2019-01-19T09:22:27.105Z,1007.93
2019-01-19T09:23:33.593Z,1007.95
2019-01-19T09:24:38.133Z,1007.93
2019-01-19T09:25:43.625Z,1007.96
2019-01-19T09:26:49.131Z,1008.00
2019-01-19T09:27:54.594Z,1007.96
2019-01-19T09:29:00.104Z,1007.95
2019-01-19T09:30:06.616Z,1007.97
2019-01-19T09:31:11.128Z,1007.93
2019-01-19T09:32:16.620Z,1007.95
2019-01-19T09:33:22.111Z,1007.97
2019-01-19T09:34:27.622Z,1007.97
2019-01-19T09:35:33.110Z,1007.99
2019-01-19T09:36:39.666Z,1007.99
2019-01-19T09:37:44.127Z,1008.01
2019-01-19T09:38:49.632Z,1008.04
2019-01-19T09:39:55.131Z,1008.07
2019-01-19T09:41:00.631Z,1008.03
2019-01-19T09:42:06.142Z,1008.06
2019-01-19T09:43:12.637Z,1008.07
2019-01-19T09:44:17.150Z,1008.05
2019-01-19T09:45:22.662Z,1008.05
2019-01-19T09:46:28.156Z,1008.06
2019-01-19T09:47:33.654Z,1008.05
2019-01-19T09:48:39.145Z,1008.04
2019-01-19T09:49:45.677Z,1008.06
2019-01-19T09:50:50.165Z,1008.05
2019-01-19T09:51:55.671Z,1008.06
2019-01-19T09:53:01.187Z,1008.00
2019-01-19T09:54:06.682Z,1008.03
2019-01-19T09:55:12.180Z,1008.06
2019-01-19T09:56:18.701Z,1008.03
2019-01-19T09:57:23.186Z,1008.02
2019-01-19T09:58:28.687Z,1007.98
2019-01-19T09:59:34.189Z,1008.05
2019-01-19T10:00:45.515Z,1007.99
2019-01-19T10:01:46.543Z,1008.02
2019-01-19T10:02:51.716Z,1007.99
2019-01-19T10:03:56.206Z,1008.00
2019-01-19T10:05:01.714Z,1007.98
2019-01-19T10:06:07.219Z,1007.99
2019-01-19T10:07:12.708Z,1007.97
2019-01-19T10:08:18.232Z,1008.01
2019-01-19T10:09:24.735Z,1007.99
2019-01-19T10:10:29.217Z,1007.97
2019-01-19T10:11:34.758Z,1007.99
2019-01-19T10:12:40.219Z,1007.95
2019-01-19T10:13:45.729Z,1007.98
2019-01-19T10:14:51.247Z,1008.00
2019-01-19T10:15:57.755Z,1008.00
2019-01-19T10:17:02.243Z,1007.93
2019-01-19T10:18:07.744Z,1007.90
2019-01-19T10:19:13.244Z,1007.96
2019-01-19T10:20:18.754Z,1007.93
2019-01-19T10:21:24.262Z,1007.94
2019-01-19T10:22:30.775Z,1007.88
2019-01-19T10:23:35.262Z,1007.88
2019-01-19T10:24:40.758Z,1007.88
2019-01-19T10:25:46.275Z,1007.87
2019-01-19T10:26:51.764Z,1007.85
2019-01-19T10:27:57.272Z,1007.86
2019-01-19T10:29:03.798Z,1007.85
2019-01-19T10:30:08.285Z,1007.84
2019-01-19T10:31:13.790Z,1007.85
2019-01-19T10:32:19.288Z,1007.83
2019-01-19T10:33:24.841Z,1007.76
2019-01-19T10:34:30.295Z,1007.81
2019-01-19T10:35:36.817Z,1007.72
2019-01-19T10:36:41.306Z,1007.72
2019-01-19T10:37:46.809Z,1007.72
2019-01-19T10:38:52.321Z,1007.71
2019-01-19T10:39:57.809Z,1007.68
2019-01-19T10:41:03.346Z,1007.69
2019-01-19T10:42:09.834Z,1007.70
2019-01-19T10:43:14.345Z,1007.66
2019-01-19T10:44:19.835Z,1007.68
2019-01-19T10:45:25.341Z,1007.68
2019-01-19T10:46:30.844Z,1007.63
2019-01-19T10:47:36.364Z,1007.61
2019-01-19T10:48:42.857Z,1007.63
2019-01-19T10:49:47.354Z,1007.60
2019-01-19T10:50:52.870Z,1007.60
2019-01-19T10:51:59.541Z,1007.58
2019-01-19T10:53:03.867Z,1007.58
2019-01-19T10:54:09.369Z,1007.60
2019-01-19T10:55:15.880Z,1007.56
2019-01-19T10:56:20.387Z,1007.57
2019-01-19T10:57:25.882Z,1007.56
2019-01-19T10:58:31.374Z,1007.56
2019-01-19T10:59:36.891Z,1007.56
2019-01-19T11:00:42.409Z,1007.53
2019-01-19T11:01:48.902Z,1007.53
2019-01-19T11:02:53.411Z,1007.50
2019-01-19T11:03:58.935Z,1007.50
2019-01-19T11:05:04.412Z,1007.55
2019-01-19T11:06:09.912Z,1007.51
2019-01-19T11:07:15.434Z,1007.51
2019-01-19T11:08:21.938Z,1007.52
2019-01-19T11:09:26.445Z,1007.50
2019-01-19T11:10:31.926Z,1007.45
2019-01-19T11:11:37.446Z,1007.41
2019-01-19T11:12:42.943Z,1007.45
2019-01-19T11:13:48.443Z,1007.46
2019-01-19T11:14:55.004Z,1007.44
2019-01-19T11:15:59.448Z,1007.43
2019-01-19T11:17:04.976Z,1007.43
2019-01-19T11:18:10.469Z,1007.42
2019-01-19T11:19:15.965Z,1007.43
2019-01-19T11:20:21.471Z,1007.37
2019-01-19T11:21:27.996Z,1007.35
2019-01-19T11:22:32.496Z,1007.31
2019-01-19T11:23:39.937Z,1007.31
2019-01-19T11:24:43.484Z,1007.31
2019-01-19T11:25:48.992Z,1007.28
2019-01-19T11:26:54.509Z,1007.27
2019-01-19T11:28:01.026Z,1007.26
2019-01-19T11:29:05.514Z,1007.23
2019-01-19T11:30:11.010Z,1007.19
2019-01-19T11:31:16.536Z,1007.19
2019-01-19T11:32:22.020Z,1007.19
2019-01-19T11:33:27.535Z,1007.17
2019-01-19T11:34:34.045Z,1007.17
2019-01-19T11:35:38.561Z,1007.17
2019-01-19T11:36:44.046Z,1007.17
2019-01-19T11:37:49.544Z,1007.15
2019-01-19T11:38:55.070Z,1007.12
2019-01-19T11:40:00.554Z,1007.08
2019-01-19T11:41:07.083Z,1007.11
2019-01-19T11:42:11.571Z,1007.10
2019-01-19T11:43:17.069Z,1007.09
2019-01-19T11:44:22.585Z,1007.05
2019-01-19T11:45:28.081Z,1006.99
2019-01-19T11:46:33.592Z,1007.00
2019-01-19T11:47:40.105Z,1006.98
2019-01-19T11:48:44.628Z,1006.97
2019-01-19T11:49:50.101Z,1006.96
2019-01-19T11:50:55.625Z,1006.96
2019-01-19T11:52:01.111Z,1006.95
2019-01-19T11:53:06.614Z,1006.93
2019-01-19T11:54:13.121Z,1006.87
2019-01-19T11:55:17.625Z,1006.87
2019-01-19T11:56:23.139Z,1006.83
2019-01-19T11:57:28.652Z,1006.80
2019-01-19T11:58:34.148Z,1006.78
2019-01-19T11:59:39.658Z,1006.78
2019-01-19T12:00:46.167Z,1006.77
2019-01-19T12:01:50.654Z,1006.80
2019-01-19T12:02:56.186Z,1006.77
2019-01-19T12:04:01.681Z,1006.75
2019-01-19T12:05:07.176Z,1006.74
2019-01-19T12:06:12.689Z,1006.76
2019-01-19T12:07:19.194Z,1006.77
2019-01-19T12:08:23.704Z,1006.75
2019-01-19T12:09:29.190Z,1006.73
2019-01-19T12:10:34.724Z,1006.76
2019-01-19T12:11:40.201Z,1006.71
2019-01-19T12:12:45.713Z,1006.68
2019-01-19T12:13:52.236Z,1006.66
2019-01-19T12:14:56.737Z,1006.64
2019-01-19T12:16:02.246Z,1006.68
2019-01-19T12:17:07.769Z,1006.61
2019-01-19T12:18:13.243Z,1006.64
2019-01-19T12:19:18.767Z,1006.62
2019-01-19T12:20:25.258Z,1006.59
2019-01-19T12:21:29.764Z,1006.55
2019-01-19T12:22:35.273Z,1006.60
2019-01-19T12:23:40.772Z,1006.59
2019-01-19T12:24:46.274Z,1006.53
2019-01-19T12:25:51.863Z,1006.51
2019-01-19T12:26:58.295Z,1006.52
2019-01-19T12:28:02.790Z,1006.48
2019-01-19T12:29:08.334Z,1006.48
2019-01-19T12:30:13.803Z,1006.47
2019-01-19T12:31:19.311Z,1006.45
2019-01-19T12:32:24.832Z,1006.47
2019-01-19T12:33:31.348Z,1006.40
2019-01-19T12:34:35.836Z,1006.46
2019-01-19T12:35:41.358Z,1006.40
2019-01-19T12:36:46.850Z,1006.41
2019-01-19T12:37:52.350Z,1006.41
2019-01-19T12:38:57.893Z,1006.39
2019-01-19T12:40:04.371Z,1006.37
2019-01-19T12:41:08.886Z,1006.39
2019-01-19T12:42:14.383Z,1006.32
2019-01-19T12:43:19.902Z,1006.34
2019-01-19T12:44:25.402Z,1006.33
2019-01-19T12:45:32.105Z,1006.32
2019-01-19T12:46:37.418Z,1006.30
2019-01-19T12:47:41.934Z,1006.29
2019-01-19T12:48:47.423Z,1006.24
2019-01-19T12:49:52.936Z,1006.20
2019-01-19T12:50:58.448Z,1006.20
2019-01-19T12:52:03.928Z,1006.19
2019-01-19T12:53:10.456Z,1006.17
2019-01-19T12:54:14.963Z,1006.16
2019-01-19T12:55:20.467Z,1006.13
2019-01-19T12:56:25.979Z,1006.13
2019-01-19T12:57:31.473Z,1006.16
2019-01-19T12:58:36.966Z,1006.11
2019-01-19T12:59:43.524Z,1006.09
2019-01-19T13:00:48.017Z,1006.07
2019-01-19T13:01:53.497Z,1006.09
2019-01-19T13:02:59.014Z,1006.08
2019-01-19T13:04:04.522Z,1006.04
2019-01-19T13:05:10.046Z,1006.05
2019-01-19T13:06:16.547Z,1006.04
2019-01-19T13:07:21.060Z,1006.03
2019-01-19T13:08:26.563Z,1006.02
2019-01-19T13:09:32.048Z,1006.01
2019-01-19T13:10:37.576Z,1005.99
2019-01-19T13:11:43.092Z,1005.95
2019-01-19T13:12:49.605Z,1005.95